sensor_id;sensor_type;location;lat;lon;timestamp;temperature;humidity
47384;DHT22;33129;52.232;5.192;2022-07-23T00:01:34;20.40;99.90
47384;DHT22;33129;52.232;5.192;2022-07-23T00:04:00;20.20;99.90
47384;DHT22;33129;52.232;5.192;2022-07-23T00:06:25;20.50;99.90
47384;DHT22;33129;52.232;5.192;2022-07-23T00:08:52;20.20;99.90
47384;DHT22;33129;52.232;5.192;2022-07-23T00:11:18;19.80;99.90
47384;DHT22;33129;52.232;5.192;2022-07-23T00:13:44;20.40;99.90
47384;DHT22;33129;52.232;5.192;2022-07-23T00:16:10;20.10;99.90
47384;DHT22;33129;52.232;5.192;2022-07-23T00:18:36;20.30;99.90
47384;DHT22;33129;52.232;5.192;2022-07-23T00:21:01;20.20;99.90
47384;DHT22;33129;52.232;5.192;2022-07-23T00:23:27;19.80;99.90
47384;DHT22;33129;52.232;5.192;2022-07-23T00:25:54;19.90;99.90
47384;DHT22;33129;52.232;5.192;2022-07-23T00:28:20;19.60;99.90
47384;DHT22;33129;52.232;5.192;2022-07-23T00:30:46;19.80;99.90
47384;DHT22;33129;52.232;5.192;2022-07-23T00:33:12;19.80;99.90
47384;DHT22;33129;52.232;5.192;2022-07-23T00:35:39;19.80;99.90
47384;DHT22;33129;52.232;5.192;2022-07-23T00:38:06;19.70;99.90
47384;DHT22;33129;52.232;5.192;2022-07-23T00:40:34;19.70;99.90
47384;DHT22;33129;52.232;5.192;2022-07-23T00:43:00;19.50;99.90
47384;DHT22;33129;52.232;5.192;2022-07-23T00:45:26;19.80;99.90
47384;DHT22;33129;52.232;5.192;2022-07-23T00:47:53;19.70;99.90
47384;DHT22;33129;52.232;5.192;2022-07-23T00:50:18;19.70;99.90
47384;DHT22;33129;52.232;5.192;2022-07-23T00:52:45;19.70;99.90
47384;DHT22;33129;52.232;5.192;2022-07-23T00:55:11;19.70;99.90
47384;DHT22;33129;52.232;5.192;2022-07-23T00:57:38;19.60;99.90
47384;DHT22;33129;52.232;5.192;2022-07-23T01:00:06;19.60;99.90
47384;DHT22;33129;52.232;5.192;2022-07-23T01:02:34;19.60;99.90
47384;DHT22;33129;52.232;5.192;2022-07-23T01:05:00;19.60;99.90
47384;DHT22;33129;52.232;5.192;2022-07-23T01:07:26;19.70;99.90
47384;DHT22;33129;52.232;5.192;2022-07-23T01:09:52;19.30;99.90
47384;DHT22;33129;52.232;5.192;2022-07-23T01:12:19;19.60;99.90
47384;DHT22;33129;52.232;5.192;2022-07-23T01:14:44;19.50;99.90
47384;DHT22;33129;52.232;5.192;2022-07-23T01:17:10;19.50;99.90
47384;DHT22;33129;52.232;5.192;2022-07-23T01:19:36;19.70;99.90
47384;DHT22;33129;52.232;5.192;2022-07-23T01:22:03;19.70;99.90
47384;DHT22;33129;52.232;5.192;2022-07-23T01:24:29;19.20;99.90
47384;DHT22;33129;52.232;5.192;2022-07-23T01:26:55;19.40;99.90
47384;DHT22;33129;52.232;5.192;2022-07-23T01:29:21;19.50;99.90
47384;DHT22;33129;52.232;5.192;2022-07-23T01:31:47;19.40;99.90
47384;DHT22;33129;52.232;5.192;2022-07-23T01:34:14;19.40;99.90
47384;DHT22;33129;52.232;5.192;2022-07-23T01:36:39;19.30;99.90
47384;DHT22;33129;52.232;5.192;2022-07-23T01:39:07;19.30;99.90
47384;DHT22;33129;52.232;5.192;2022-07-23T01:41:33;19.20;99.90
47384;DHT22;33129;52.232;5.192;2022-07-23T01:44:00;19.20;99.90
47384;DHT22;33129;52.232;5.192;2022-07-23T01:46:26;19.20;99.90
47384;DHT22;33129;52.232;5.192;2022-07-23T01:48:51;19.10;99.90
47384;DHT22;33129;52.232;5.192;2022-07-23T01:51:17;19.10;99.90
47384;DHT22;33129;52.232;5.192;2022-07-23T01:53:43;19.30;99.90
47384;DHT22;33129;52.232;5.192;2022-07-23T01:56:08;19.20;99.90
47384;DHT22;33129;52.232;5.192;2022-07-23T01:58:34;19.20;99.90
47384;DHT22;33129;52.232;5.192;2022-07-23T02:01:00;18.70;99.90
47384;DHT22;33129;52.232;5.192;2022-07-23T02:03:26;19.10;99.90
47384;DHT22;33129;52.232;5.192;2022-07-23T02:05:52;19.00;99.90
47384;DHT22;33129;52.232;5.192;2022-07-23T02:08:18;18.50;99.90
47384;DHT22;33129;52.232;5.192;2022-07-23T02:10:44;19.10;99.90
47384;DHT22;33129;52.232;5.192;2022-07-23T02:13:11;19.10;99.90
47384;DHT22;33129;52.232;5.192;2022-07-23T02:15:37;19.00;99.90
47384;DHT22;33129;52.232;5.192;2022-07-23T02:18:02;18.80;99.90
47384;DHT22;33129;52.232;5.192;2022-07-23T02:20:28;18.80;99.90
47384;DHT22;33129;52.232;5.192;2022-07-23T02:22:54;18.80;99.90
47384;DHT22;33129;52.232;5.192;2022-07-23T02:25:20;18.80;99.90
47384;DHT22;33129;52.232;5.192;2022-07-23T02:27:45;18.70;99.90
47384;DHT22;33129;52.232;5.192;2022-07-23T02:30:11;18.60;99.90
47384;DHT22;33129;52.232;5.192;2022-07-23T02:32:37;18.50;99.90
47384;DHT22;33129;52.232;5.192;2022-07-23T02:35:05;18.30;99.90
47384;DHT22;33129;52.232;5.192;2022-07-23T02:37:32;18.50;99.90
47384;DHT22;33129;52.232;5.192;2022-07-23T02:39:57;18.50;99.90
47384;DHT22;33129;52.232;5.192;2022-07-23T02:42:23;18.60;99.90
47384;DHT22;33129;52.232;5.192;2022-07-23T02:44:50;18.70;99.90
47384;DHT22;33129;52.232;5.192;2022-07-23T02:47:16;18.70;99.90
47384;DHT22;33129;52.232;5.192;2022-07-23T02:49:42;18.90;99.90
47384;DHT22;33129;52.232;5.192;2022-07-23T02:52:08;18.50;99.90
47384;DHT22;33129;52.232;5.192;2022-07-23T02:54:36;18.60;99.90
47384;DHT22;33129;52.232;5.192;2022-07-23T02:57:02;18.90;99.90
47384;DHT22;33129;52.232;5.192;2022-07-23T02:59:29;18.70;99.90
47384;DHT22;33129;52.232;5.192;2022-07-23T03:01:54;18.70;99.90
47384;DHT22;33129;52.232;5.192;2022-07-23T03:04:20;19.00;99.90
47384;DHT22;33129;52.232;5.192;2022-07-23T03:06:46;18.90;99.90
47384;DHT22;33129;52.232;5.192;2022-07-23T03:09:11;18.60;99.90
47384;DHT22;33129;52.232;5.192;2022-07-23T03:11:37;18.60;99.90
47384;DHT22;33129;52.232;5.192;2022-07-23T03:14:03;18.60;99.90
47384;DHT22;33129;52.232;5.192;2022-07-23T03:16:29;18.60;99.90
47384;DHT22;33129;52.232;5.192;2022-07-23T03:18:54;18.50;99.90
47384;DHT22;33129;52.232;5.192;2022-07-23T03:21:20;18.60;99.90
47384;DHT22;33129;52.232;5.192;2022-07-23T03:23:46;18.60;99.90
47384;DHT22;33129;52.232;5.192;2022-07-23T03:26:11;18.60;99.90
47384;DHT22;33129;52.232;5.192;2022-07-23T03:28:37;18.50;99.90
47384;DHT22;33129;52.232;5.192;2022-07-23T03:31:03;18.60;99.90
47384;DHT22;33129;52.232;5.192;2022-07-23T03:33:28;18.00;99.90
47384;DHT22;33129;52.232;5.192;2022-07-23T03:35:54;18.60;99.90
47384;DHT22;33129;52.232;5.192;2022-07-23T03:38:20;18.20;99.90
47384;DHT22;33129;52.232;5.192;2022-07-23T03:40:46;18.50;99.90
47384;DHT22;33129;52.232;5.192;2022-07-23T03:43:11;18.60;99.90
47384;DHT22;33129;52.232;5.192;2022-07-23T03:45:37;18.90;99.90
47384;DHT22;33129;52.232;5.192;2022-07-23T03:48:03;18.70;99.90
47384;DHT22;33129;52.232;5.192;2022-07-23T03:50:28;18.40;99.90
47384;DHT22;33129;52.232;5.192;2022-07-23T03:52:54;18.30;99.90
47384;DHT22;33129;52.232;5.192;2022-07-23T03:55:20;18.40;99.90
47384;DHT22;33129;52.232;5.192;2022-07-23T03:57:45;18.20;99.90
47384;DHT22;33129;52.232;5.192;2022-07-23T04:00:12;18.00;99.90
47384;DHT22;33129;52.232;5.192;2022-07-23T04:02:39;18.20;99.90
47384;DHT22;33129;52.232;5.192;2022-07-23T04:05:06;18.20;99.90
47384;DHT22;33129;52.232;5.192;2022-07-23T04:07:32;18.10;99.90
47384;DHT22;33129;52.232;5.192;2022-07-23T04:09:58;18.20;99.90
47384;DHT22;33129;52.232;5.192;2022-07-23T04:12:24;17.50;99.90
47384;DHT22;33129;52.232;5.192;2022-07-23T04:14:50;18.30;99.90
47384;DHT22;33129;52.232;5.192;2022-07-23T04:17:15;18.10;99.90
47384;DHT22;33129;52.232;5.192;2022-07-23T04:19:41;18.20;99.90
47384;DHT22;33129;52.232;5.192;2022-07-23T04:22:09;18.20;99.90
47384;DHT22;33129;52.232;5.192;2022-07-23T04:24:38;18.30;99.90
47384;DHT22;33129;52.232;5.192;2022-07-23T04:27:04;18.20;99.90
47384;DHT22;33129;52.232;5.192;2022-07-23T04:29:30;18.40;99.90
47384;DHT22;33129;52.232;5.192;2022-07-23T04:31:56;18.50;99.90
47384;DHT22;33129;52.232;5.192;2022-07-23T04:34:22;18.50;99.90
47384;DHT22;33129;52.232;5.192;2022-07-23T04:36:48;18.80;99.90
47384;DHT22;33129;52.232;5.192;2022-07-23T04:39:14;18.80;99.90
47384;DHT22;33129;52.232;5.192;2022-07-23T04:41:40;19.10;99.90
47384;DHT22;33129;52.232;5.192;2022-07-23T04:44:06;18.90;99.90
47384;DHT22;33129;52.232;5.192;2022-07-23T04:46:32;19.10;99.90
47384;DHT22;33129;52.232;5.192;2022-07-23T04:48:58;19.10;99.90
47384;DHT22;33129;52.232;5.192;2022-07-23T04:51:24;19.10;99.90
47384;DHT22;33129;52.232;5.192;2022-07-23T04:53:49;19.10;99.90
47384;DHT22;33129;52.232;5.192;2022-07-23T04:56:16;19.20;99.90
47384;DHT22;33129;52.232;5.192;2022-07-23T04:58:41;19.20;99.90
47384;DHT22;33129;52.232;5.192;2022-07-23T05:01:07;19.40;99.90
47384;DHT22;33129;52.232;5.192;2022-07-23T05:03:33;19.60;99.90
47384;DHT22;33129;52.232;5.192;2022-07-23T05:05:59;19.50;99.90
47384;DHT22;33129;52.232;5.192;2022-07-23T05:08:24;19.70;99.90
47384;DHT22;33129;52.232;5.192;2022-07-23T05:10:50;20.00;99.90
47384;DHT22;33129;52.232;5.192;2022-07-23T05:13:16;20.00;99.90
47384;DHT22;33129;52.232;5.192;2022-07-23T05:15:43;20.10;99.90
47384;DHT22;33129;52.232;5.192;2022-07-23T05:18:09;20.40;99.90
47384;DHT22;33129;52.232;5.192;2022-07-23T05:20:35;20.20;99.90
47384;DHT22;33129;52.232;5.192;2022-07-23T05:23:00;20.40;99.90
47384;DHT22;33129;52.232;5.192;2022-07-23T05:25:26;20.70;99.90
47384;DHT22;33129;52.232;5.192;2022-07-23T05:27:52;20.60;99.90
47384;DHT22;33129;52.232;5.192;2022-07-23T05:30:18;20.80;99.90
47384;DHT22;33129;52.232;5.192;2022-07-23T05:32:43;20.80;99.90
47384;DHT22;33129;52.232;5.192;2022-07-23T05:35:09;21.00;99.90
47384;DHT22;33129;52.232;5.192;2022-07-23T05:37:35;21.10;99.90
47384;DHT22;33129;52.232;5.192;2022-07-23T05:40:05;21.30;99.90
47384;DHT22;33129;52.232;5.192;2022-07-23T05:42:37;21.20;99.90
47384;DHT22;33129;52.232;5.192;2022-07-23T05:45:04;21.00;99.90
47384;DHT22;33129;52.232;5.192;2022-07-23T05:47:45;21.60;99.90
47384;DHT22;33129;52.232;5.192;2022-07-23T05:50:13;21.50;99.90
47384;DHT22;33129;52.232;5.192;2022-07-23T05:52:40;21.30;99.90
47384;DHT22;33129;52.232;5.192;2022-07-23T05:55:07;21.00;99.90
47384;DHT22;33129;52.232;5.192;2022-07-23T05:57:34;21.00;99.90
47384;DHT22;33129;52.232;5.192;2022-07-23T05:59:59;21.20;99.90
47384;DHT22;33129;52.232;5.192;2022-07-23T06:02:25;21.60;99.90
47384;DHT22;33129;52.232;5.192;2022-07-23T06:04:51;21.50;99.90
47384;DHT22;33129;52.232;5.192;2022-07-23T06:07:16;21.80;99.90
47384;DHT22;33129;52.232;5.192;2022-07-23T06:09:42;21.70;99.90
47384;DHT22;33129;52.232;5.192;2022-07-23T06:12:08;22.00;99.90
47384;DHT22;33129;52.232;5.192;2022-07-23T06:14:34;22.30;99.90
47384;DHT22;33129;52.232;5.192;2022-07-23T06:16:59;22.60;99.90
47384;DHT22;33129;52.232;5.192;2022-07-23T06:19:25;22.60;99.90
47384;DHT22;33129;52.232;5.192;2022-07-23T06:21:51;22.90;99.90
47384;DHT22;33129;52.232;5.192;2022-07-23T06:24:17;23.30;99.90
47384;DHT22;33129;52.232;5.192;2022-07-23T06:26:43;23.40;99.90
47384;DHT22;33129;52.232;5.192;2022-07-23T06:29:08;23.30;99.90
47384;DHT22;33129;52.232;5.192;2022-07-23T06:31:34;23.20;99.90
47384;DHT22;33129;52.232;5.192;2022-07-23T06:34:00;23.20;99.90
47384;DHT22;33129;52.232;5.192;2022-07-23T06:36:26;23.40;99.90
47384;DHT22;33129;52.232;5.192;2022-07-23T06:38:52;23.50;99.90
47384;DHT22;33129;52.232;5.192;2022-07-23T06:41:17;23.70;99.90
47384;DHT22;33129;52.232;5.192;2022-07-23T06:43:43;23.80;99.90
47384;DHT22;33129;52.232;5.192;2022-07-23T06:46:09;24.10;99.90
47384;DHT22;33129;52.232;5.192;2022-07-23T06:48:34;24.30;99.90
47384;DHT22;33129;52.232;5.192;2022-07-23T06:51:01;24.70;99.90
47384;DHT22;33129;52.232;5.192;2022-07-23T06:53:28;24.80;99.90
47384;DHT22;33129;52.232;5.192;2022-07-23T06:55:53;24.50;99.90
47384;DHT22;33129;52.232;5.192;2022-07-23T06:58:20;24.40;99.90
47384;DHT22;33129;52.232;5.192;2022-07-23T07:00:45;24.30;99.90
47384;DHT22;33129;52.232;5.192;2022-07-23T07:03:11;23.80;99.90
47384;DHT22;33129;52.232;5.192;2022-07-23T07:05:37;23.50;99.90
47384;DHT22;33129;52.232;5.192;2022-07-23T07:08:05;23.50;99.90
47384;DHT22;33129;52.232;5.192;2022-07-23T07:10:31;23.40;99.90
47384;DHT22;33129;52.232;5.192;2022-07-23T07:12:57;23.60;99.90
47384;DHT22;33129;52.232;5.192;2022-07-23T07:15:23;23.70;99.90
47384;DHT22;33129;52.232;5.192;2022-07-23T07:17:49;23.60;99.90
47384;DHT22;33129;52.232;5.192;2022-07-23T07:20:15;23.30;99.90
47384;DHT22;33129;52.232;5.192;2022-07-23T07:22:40;23.30;99.90
47384;DHT22;33129;52.232;5.192;2022-07-23T07:25:07;23.20;99.90
47384;DHT22;33129;52.232;5.192;2022-07-23T07:27:33;23.60;99.90
47384;DHT22;33129;52.232;5.192;2022-07-23T07:29:59;24.10;99.90
47384;DHT22;33129;52.232;5.192;2022-07-23T07:32:24;24.40;99.90
47384;DHT22;33129;52.232;5.192;2022-07-23T07:34:50;24.70;99.90
47384;DHT22;33129;52.232;5.192;2022-07-23T07:37:16;24.90;99.90
47384;DHT22;33129;52.232;5.192;2022-07-23T07:39:42;24.90;99.90
47384;DHT22;33129;52.232;5.192;2022-07-23T07:42:08;24.90;99.90
47384;DHT22;33129;52.232;5.192;2022-07-23T07:44:33;25.30;99.90
47384;DHT22;33129;52.232;5.192;2022-07-23T07:46:59;25.30;99.90
47384;DHT22;33129;52.232;5.192;2022-07-23T07:49:25;25.20;99.90
47384;DHT22;33129;52.232;5.192;2022-07-23T07:51:50;25.40;99.90
47384;DHT22;33129;52.232;5.192;2022-07-23T07:54:16;25.20;99.90
47384;DHT22;33129;52.232;5.192;2022-07-23T07:56:42;25.40;99.90
47384;DHT22;33129;52.232;5.192;2022-07-23T07:59:07;25.90;99.90
47384;DHT22;33129;52.232;5.192;2022-07-23T08:01:33;26.20;99.90
47384;DHT22;33129;52.232;5.192;2022-07-23T08:03:59;26.40;99.90
47384;DHT22;33129;52.232;5.192;2022-07-23T08:06:25;26.40;99.90
47384;DHT22;33129;52.232;5.192;2022-07-23T08:08:50;26.10;99.90
47384;DHT22;33129;52.232;5.192;2022-07-23T08:11:16;26.20;99.90
47384;DHT22;33129;52.232;5.192;2022-07-23T08:13:42;26.30;99.90
47384;DHT22;33129;52.232;5.192;2022-07-23T08:16:10;26.10;99.90
47384;DHT22;33129;52.232;5.192;2022-07-23T08:18:36;25.90;99.90
47384;DHT22;33129;52.232;5.192;2022-07-23T08:21:02;25.90;99.90
47384;DHT22;33129;52.232;5.192;2022-07-23T08:23:29;26.30;99.90
47384;DHT22;33129;52.232;5.192;2022-07-23T08:25:55;26.30;99.90
47384;DHT22;33129;52.232;5.192;2022-07-23T08:28:22;26.40;99.90
47384;DHT22;33129;52.232;5.192;2022-07-23T08:30:47;26.40;99.90
47384;DHT22;33129;52.232;5.192;2022-07-23T08:33:15;26.90;99.90
47384;DHT22;33129;52.232;5.192;2022-07-23T08:35:46;27.10;99.90
47384;DHT22;33129;52.232;5.192;2022-07-23T08:38:16;27.10;99.90
47384;DHT22;33129;52.232;5.192;2022-07-23T08:40:45;26.60;99.90
47384;DHT22;33129;52.232;5.192;2022-07-23T08:43:25;26.80;99.90
47384;DHT22;33129;52.232;5.192;2022-07-23T08:45:55;27.20;99.90
47384;DHT22;33129;52.232;5.192;2022-07-23T08:48:31;27.50;99.90
47384;DHT22;33129;52.232;5.192;2022-07-23T08:51:00;27.50;99.90
47384;DHT22;33129;52.232;5.192;2022-07-23T08:53:28;27.20;99.90
47384;DHT22;33129;52.232;5.192;2022-07-23T08:55:56;27.10;99.90
47384;DHT22;33129;52.232;5.192;2022-07-23T08:58:24;27.20;99.90
47384;DHT22;33129;52.232;5.192;2022-07-23T09:00:50;27.10;99.90
47384;DHT22;33129;52.232;5.192;2022-07-23T09:03:31;27.30;99.90
47384;DHT22;33129;52.232;5.192;2022-07-23T09:05:59;27.40;99.90
47384;DHT22;33129;52.232;5.192;2022-07-23T09:11:06;28.00;99.90
47384;DHT22;33129;52.232;5.192;2022-07-23T09:13:41;28.30;99.90
47384;DHT22;33129;52.232;5.192;2022-07-23T09:16:18;28.10;99.90
47384;DHT22;33129;52.232;5.192;2022-07-23T09:18:56;27.20;99.90
47384;DHT22;33129;52.232;5.192;2022-07-23T09:21:37;27.40;99.90
47384;DHT22;33129;52.232;5.192;2022-07-23T09:24:10;27.30;99.90
47384;DHT22;33129;52.232;5.192;2022-07-23T09:26:45;27.80;99.90
47384;DHT22;33129;52.232;5.192;2022-07-23T09:29:25;28.00;99.90
47384;DHT22;33129;52.232;5.192;2022-07-23T09:34:24;28.10;99.90
47384;DHT22;33129;52.232;5.192;2022-07-23T09:36:56;28.00;99.90
47384;DHT22;33129;52.232;5.192;2022-07-23T09:39:31;28.00;99.90
47384;DHT22;33129;52.232;5.192;2022-07-23T09:42:12;28.00;99.90
47384;DHT22;33129;52.232;5.192;2022-07-23T09:44:47;28.30;99.90
47384;DHT22;33129;52.232;5.192;2022-07-23T09:47:14;28.20;99.90
47384;DHT22;33129;52.232;5.192;2022-07-23T09:49:40;28.20;99.90
47384;DHT22;33129;52.232;5.192;2022-07-23T09:52:29;28.20;99.90
47384;DHT22;33129;52.232;5.192;2022-07-23T09:55:00;28.60;99.90
47384;DHT22;33129;52.232;5.192;2022-07-23T09:57:32;29.20;99.90
47384;DHT22;33129;52.232;5.192;2022-07-23T10:00:01;29.20;99.90
47384;DHT22;33129;52.232;5.192;2022-07-23T10:02:34;28.80;99.90
47384;DHT22;33129;52.232;5.192;2022-07-23T10:05:02;28.60;99.90
47384;DHT22;33129;52.232;5.192;2022-07-23T10:07:31;29.30;99.90
47384;DHT22;33129;52.232;5.192;2022-07-23T10:10:00;29.40;99.90
47384;DHT22;33129;52.232;5.192;2022-07-23T10:12:26;29.40;99.90
47384;DHT22;33129;52.232;5.192;2022-07-23T10:15:01;29.20;99.90
47384;DHT22;33129;52.232;5.192;2022-07-23T10:17:30;29.40;99.90
47384;DHT22;33129;52.232;5.192;2022-07-23T10:19:56;29.00;99.90
47384;DHT22;33129;52.232;5.192;2022-07-23T10:22:31;28.80;99.90
47384;DHT22;33129;52.232;5.192;2022-07-23T10:25:14;28.80;99.90
47384;DHT22;33129;52.232;5.192;2022-07-23T10:31:07;28.30;99.90
47384;DHT22;33129;52.232;5.192;2022-07-23T10:34:02;28.90;99.90
47384;DHT22;33129;52.232;5.192;2022-07-23T10:36:49;28.90;99.90
47384;DHT22;33129;52.232;5.192;2022-07-23T10:39:42;29.20;99.90
47384;DHT22;33129;52.232;5.192;2022-07-23T10:42:12;29.00;99.90
47384;DHT22;33129;52.232;5.192;2022-07-23T10:44:44;28.80;99.90
47384;DHT22;33129;52.232;5.192;2022-07-23T10:47:11;28.90;99.90
47384;DHT22;33129;52.232;5.192;2022-07-23T10:49:37;29.40;99.90
47384;DHT22;33129;52.232;5.192;2022-07-23T10:52:20;29.30;99.90
47384;DHT22;33129;52.232;5.192;2022-07-23T10:57:51;29.20;99.90
47384;DHT22;33129;52.232;5.192;2022-07-23T11:00:21;29.40;99.90
47384;DHT22;33129;52.232;5.192;2022-07-23T11:02:50;29.50;99.90
47384;DHT22;33129;52.232;5.192;2022-07-23T11:05:20;29.80;99.90
47384;DHT22;33129;52.232;5.192;2022-07-23T11:13:37;29.70;99.90
47384;DHT22;33129;52.232;5.192;2022-07-23T11:26:50;30.00;99.90
47384;DHT22;33129;52.232;5.192;2022-07-23T11:32:03;29.60;99.90
47384;DHT22;33129;52.232;5.192;2022-07-23T11:34:41;29.40;99.90
47384;DHT22;33129;52.232;5.192;2022-07-23T11:37:11;29.80;99.90
47384;DHT22;33129;52.232;5.192;2022-07-23T11:39:57;29.50;99.90
47384;DHT22;33129;52.232;5.192;2022-07-23T11:42:23;29.90;99.90
47384;DHT22;33129;52.232;5.192;2022-07-23T11:44:50;29.90;99.90
47384;DHT22;33129;52.232;5.192;2022-07-23T11:47:23;30.10;99.90
47384;DHT22;33129;52.232;5.192;2022-07-23T11:49:58;29.90;99.90
47384;DHT22;33129;52.232;5.192;2022-07-23T11:52:25;30.00;99.90
47384;DHT22;33129;52.232;5.192;2022-07-23T11:57:24;30.40;99.90
47384;DHT22;33129;52.232;5.192;2022-07-23T11:59:58;30.20;99.90
47384;DHT22;33129;52.232;5.192;2022-07-23T12:02:28;30.10;99.90
47384;DHT22;33129;52.232;5.192;2022-07-23T12:04:54;30.20;99.90
47384;DHT22;33129;52.232;5.192;2022-07-23T12:09:58;30.40;99.90
47384;DHT22;33129;52.232;5.192;2022-07-23T12:12:26;30.80;99.90
47384;DHT22;33129;52.232;5.192;2022-07-23T12:14:57;30.70;99.90
47384;DHT22;33129;52.232;5.192;2022-07-23T12:17:29;30.70;99.90
47384;DHT22;33129;52.232;5.192;2022-07-23T12:20:00;30.70;99.90
47384;DHT22;33129;52.232;5.192;2022-07-23T12:22:39;30.90;99.90
47384;DHT22;33129;52.232;5.192;2022-07-23T12:25:15;31.20;99.90
47384;DHT22;33129;52.232;5.192;2022-07-23T12:27:43;31.40;99.90
47384;DHT22;33129;52.232;5.192;2022-07-23T12:33:04;31.30;99.90
47384;DHT22;33129;52.232;5.192;2022-07-23T12:35:36;30.80;99.90
47384;DHT22;33129;52.232;5.192;2022-07-23T12:38:09;30.70;99.90
47384;DHT22;33129;52.232;5.192;2022-07-23T12:43:22;29.90;99.90
47384;DHT22;33129;52.232;5.192;2022-07-23T12:45:57;29.30;99.90
47384;DHT22;33129;52.232;5.192;2022-07-23T12:48:33;29.60;99.90
47384;DHT22;33129;52.232;5.192;2022-07-23T12:51:02;29.80;99.90
47384;DHT22;33129;52.232;5.192;2022-07-23T12:53:41;30.20;99.90
47384;DHT22;33129;52.232;5.192;2022-07-23T12:56:15;30.40;99.90
47384;DHT22;33129;52.232;5.192;2022-07-23T13:04:02;31.00;99.90
47384;DHT22;33129;52.232;5.192;2022-07-23T13:06:32;30.70;99.90
47384;DHT22;33129;52.232;5.192;2022-07-23T13:09:01;30.80;99.90
47384;DHT22;33129;52.232;5.192;2022-07-23T13:11:27;31.00;99.90
47384;DHT22;33129;52.232;5.192;2022-07-23T13:13:53;31.00;99.90
47384;DHT22;33129;52.232;5.192;2022-07-23T13:16:19;31.00;99.90
47384;DHT22;33129;52.232;5.192;2022-07-23T13:18:44;30.50;99.90
47384;DHT22;33129;52.232;5.192;2022-07-23T13:21:10;30.70;99.90
47384;DHT22;33129;52.232;5.192;2022-07-23T13:23:36;30.80;99.90
47384;DHT22;33129;52.232;5.192;2022-07-23T13:26:02;30.80;99.90
47384;DHT22;33129;52.232;5.192;2022-07-23T13:28:28;30.90;99.90
47384;DHT22;33129;52.232;5.192;2022-07-23T13:30:54;30.50;99.90
47384;DHT22;33129;52.232;5.192;2022-07-23T13:33:22;30.50;99.90
47384;DHT22;33129;52.232;5.192;2022-07-23T13:35:50;30.70;99.90
47384;DHT22;33129;52.232;5.192;2022-07-23T13:38:18;30.70;99.90
47384;DHT22;33129;52.232;5.192;2022-07-23T13:40:46;30.70;99.90
47384;DHT22;33129;52.232;5.192;2022-07-23T13:43:16;30.40;99.90
47384;DHT22;33129;52.232;5.192;2022-07-23T13:45:43;30.70;99.90
47384;DHT22;33129;52.232;5.192;2022-07-23T13:48:11;30.60;99.90
47384;DHT22;33129;52.232;5.192;2022-07-23T13:50:38;30.60;99.90
47384;DHT22;33129;52.232;5.192;2022-07-23T13:53:06;30.80;99.90
47384;DHT22;33129;52.232;5.192;2022-07-23T13:55:35;31.10;99.90
47384;DHT22;33129;52.232;5.192;2022-07-23T13:58:02;31.00;99.90
47384;DHT22;33129;52.232;5.192;2022-07-23T14:00:29;31.10;99.90
47384;DHT22;33129;52.232;5.192;2022-07-23T14:02:56;31.10;99.90
47384;DHT22;33129;52.232;5.192;2022-07-23T14:05:22;31.10;99.90
47384;DHT22;33129;52.232;5.192;2022-07-23T14:07:48;31.10;99.90
47384;DHT22;33129;52.232;5.192;2022-07-23T14:10:16;30.90;99.90
47384;DHT22;33129;52.232;5.192;2022-07-23T14:12:43;30.80;99.90
47384;DHT22;33129;52.232;5.192;2022-07-23T14:15:10;30.80;99.90
47384;DHT22;33129;52.232;5.192;2022-07-23T14:17:37;30.80;99.90
47384;DHT22;33129;52.232;5.192;2022-07-23T14:20:05;30.70;99.90
47384;DHT22;33129;52.232;5.192;2022-07-23T14:22:31;30.30;99.90
47384;DHT22;33129;52.232;5.192;2022-07-23T14:24:57;30.40;99.90
47384;DHT22;33129;52.232;5.192;2022-07-23T14:27:24;30.40;99.90
47384;DHT22;33129;52.232;5.192;2022-07-23T14:29:51;30.30;99.90
47384;DHT22;33129;52.232;5.192;2022-07-23T14:32:18;30.40;99.90
47384;DHT22;33129;52.232;5.192;2022-07-23T14:34:44;30.10;99.90
47384;DHT22;33129;52.232;5.192;2022-07-23T14:37:10;29.80;99.90
47384;DHT22;33129;52.232;5.192;2022-07-23T14:39:40;29.60;99.90
47384;DHT22;33129;52.232;5.192;2022-07-23T14:42:06;29.80;99.90
47384;DHT22;33129;52.232;5.192;2022-07-23T14:44:33;30.00;99.90
47384;DHT22;33129;52.232;5.192;2022-07-23T14:46:59;29.90;99.90
47384;DHT22;33129;52.232;5.192;2022-07-23T14:49:26;29.90;99.90
47384;DHT22;33129;52.232;5.192;2022-07-23T14:51:53;29.90;99.90
47384;DHT22;33129;52.232;5.192;2022-07-23T14:54:18;29.90;99.90
47384;DHT22;33129;52.232;5.192;2022-07-23T14:56:45;29.50;99.90
47384;DHT22;33129;52.232;5.192;2022-07-23T14:59:11;29.50;99.90
47384;DHT22;33129;52.232;5.192;2022-07-23T15:01:37;29.50;99.90
47384;DHT22;33129;52.232;5.192;2022-07-23T15:04:04;29.60;99.90
47384;DHT22;33129;52.232;5.192;2022-07-23T15:06:30;29.60;99.90
47384;DHT22;33129;52.232;5.192;2022-07-23T15:08:56;29.60;99.90
47384;DHT22;33129;52.232;5.192;2022-07-23T15:11:21;29.70;99.90
47384;DHT22;33129;52.232;5.192;2022-07-23T15:13:47;29.60;99.90
47384;DHT22;33129;52.232;5.192;2022-07-23T15:16:13;29.40;99.90
47384;DHT22;33129;52.232;5.192;2022-07-23T15:18:39;29.60;99.90
47384;DHT22;33129;52.232;5.192;2022-07-23T15:21:05;29.60;99.90
47384;DHT22;33129;52.232;5.192;2022-07-23T15:23:31;29.50;99.90
47384;DHT22;33129;52.232;5.192;2022-07-23T15:25:57;29.50;99.90
47384;DHT22;33129;52.232;5.192;2022-07-23T15:28:23;29.40;99.90
47384;DHT22;33129;52.232;5.192;2022-07-23T15:30:50;29.40;99.90
47384;DHT22;33129;52.232;5.192;2022-07-23T15:33:17;29.50;99.90
47384;DHT22;33129;52.232;5.192;2022-07-23T15:35:43;29.50;99.90
47384;DHT22;33129;52.232;5.192;2022-07-23T15:38:08;29.50;99.90
47384;DHT22;33129;52.232;5.192;2022-07-23T15:40:34;29.10;99.90
47384;DHT22;33129;52.232;5.192;2022-07-23T15:43:00;29.30;99.90
47384;DHT22;33129;52.232;5.192;2022-07-23T15:45:26;29.30;99.90
47384;DHT22;33129;52.232;5.192;2022-07-23T15:47:52;29.40;99.90
47384;DHT22;33129;52.232;5.192;2022-07-23T15:50:18;29.50;99.90
47384;DHT22;33129;52.232;5.192;2022-07-23T15:52:43;29.50;99.90
47384;DHT22;33129;52.232;5.192;2022-07-23T15:55:09;29.30;99.90
47384;DHT22;33129;52.232;5.192;2022-07-23T15:57:36;29.30;99.90
47384;DHT22;33129;52.232;5.192;2022-07-23T16:00:03;29.20;99.90
47384;DHT22;33129;52.232;5.192;2022-07-23T16:02:30;29.30;99.90
47384;DHT22;33129;52.232;5.192;2022-07-23T16:04:56;29.20;99.90
47384;DHT22;33129;52.232;5.192;2022-07-23T16:07:22;29.00;99.90
47384;DHT22;33129;52.232;5.192;2022-07-23T16:09:48;28.90;99.90
47384;DHT22;33129;52.232;5.192;2022-07-23T16:12:14;28.90;99.90
47384;DHT22;33129;52.232;5.192;2022-07-23T16:14:39;29.10;99.90
47384;DHT22;33129;52.232;5.192;2022-07-23T16:17:05;29.20;99.90
47384;DHT22;33129;52.232;5.192;2022-07-23T16:19:31;29.40;99.90